Time,TemperatureF,DewpointF,PressureIn,WindDirection,WindDirectionDegrees,WindSpeedMPH,WindSpeedGustMPH,Humidity,HourlyPrecipIn,Conditions,Clouds,dailyrainin,SoftwareType,DateUTC
2013-06-29 00:01:00,62.4,59.4,29.68,ESE,112,0.0,0.0,90,0.00,CLR,,0.00,WeatherDisplay:10.37,2013-06-29 04:01:00,
2013-06-29 00:06:00,62.1,59.4,29.68,ESE,112,0.0,0.0,91,0.00,CLR,,0.00,WeatherDisplay:10.37,2013-06-29 04:06:00,
2013-06-29 00:11:00,62.2,59.3,29.68,SSE,158,0.0,0.0,90,0.00,CLR,,0.00,WeatherDisplay:10.37,2013-06-29 04:11:00,
2013-06-29 00:16:00,62.1,59.4,29.68,ESE,112,0.0,0.0,91,0.00,CLR,,0.00,WeatherDisplay:10.37,2013-06-29 04:16:00,
2013-06-29 00:21:00,61.7,59.4,29.68,ESE,112,0.0,0.0,92,0.00,CLR,,0.00,WeatherDisplay:10.37,2013-06-29 04:21:00,
2013-06-29 00:26:00,61.7,59.0,29.68,ESE,112,0.0,0.0,91,0.00,CLR,,0.00,WeatherDisplay:10.37,2013-06-29 04:26:00,
2013-06-29 00:31:00,61.7,59.4,29.68,ESE,112,0.0,0.0,92,0.00,CLR,,0.00,WeatherDisplay:10.37,2013-06-29 04:31:00,
2013-06-29 00:36:00,61.5,59.5,29.68,ESE,112,0.0,0.0,93,0.00,CLR,,0.00,WeatherDisplay:10.37,2013-06-29 04:36:00,
2013-06-29 00:41:00,61.3,59.3,29.68,ESE,112,0.0,0.0,93,0.00,CLR,,0.00,WeatherDisplay:10.37,2013-06-29 04:41:00,
2013-06-29 00:46:00,61.2,58.8,29.68,East,90,0.0,0.0,92,0.00,CLR,,0.00,WeatherDisplay:10.37,2013-06-29 04:46:00,
2013-06-29 00:51:00,61.2,59.1,29.68,ENE,68,0.0,0.0,93,0.00,CLR,,0.00,WeatherDisplay:10.37,2013-06-29 04:51:00,
2013-06-29 00:56:00,61.2,59.1,29.68,ENE,68,0.0,0.0,93,0.00,CLR,,0.00,WeatherDisplay:10.37,2013-06-29 04:56:00,
2013-06-29 01:01:00,61.0,58.9,29.68,East,90,0.0,0.0,93,0.00,CLR,,0.00,WeatherDisplay:10.37,2013-06-29 05:01:00,
2013-06-29 01:06:00,61.0,58.9,29.68,ESE,112,0.0,0.0,93,0.00,CLR,,0.00,WeatherDisplay:10.37,2013-06-29 05:06:00,
2013-06-29 01:11:00,60.8,58.8,29.68,ESE,112,0.0,0.0,93,0.00,CLR,,0.00,WeatherDisplay:10.37,2013-06-29 05:11:00,
2013-06-29 01:16:00,60.6,58.9,29.68,ESE,112,0.0,0.0,94,0.00,CLR,,0.00,WeatherDisplay:10.37,2013-06-29 05:16:00,
2013-06-29 01:21:00,60.4,58.7,29.68,WSW,248,0.0,0.0,94,0.00,CLR,,0.00,WeatherDisplay:10.37,2013-06-29 05:21:00,
2013-06-29 01:26:00,60.4,58.7,29.68,SSW,202,0.0,0.0,94,0.00,CLR,,0.00,WeatherDisplay:10.37,2013-06-29 05:26:00,
2013-06-29 01:31:00,60.3,58.5,29.68,SE,135,0.0,0.0,94,0.00,CLR,,0.00,WeatherDisplay:10.37,2013-06-29 05:31:00,
2013-06-29 01:36:00,60.3,58.8,29.68,SE,135,0.0,0.0,95,0.00,CLR,,0.00,WeatherDisplay:10.37,2013-06-29 05:36:00,
2013-06-29 01:41:00,60.3,58.8,29.68,SE,135,0.0,0.0,95,0.00,CLR,,0.00,WeatherDisplay:10.37,2013-06-29 05:41:00,
2013-06-29 01:46:00,60.1,58.6,29.68,SE,135,0.0,0.0,95,0.00,CLR,,0.00,WeatherDisplay:10.37,2013-06-29 05:46:00,
2013-06-29 01:51:00,60.1,58.3,29.68,South,180,0.0,0.0,94,0.00,CLR,,0.00,WeatherDisplay:10.37,2013-06-29 05:51:00,
2013-06-29 01:56:00,60.3,58.5,29.68,SSE,158,0.0,0.0,94,0.00,CLR,,0.00,WeatherDisplay:10.37,2013-06-29 05:56:00,
2013-06-29 02:01:00,60.1,58.6,29.65,SSW,202,0.0,0.0,95,0.00,CLR,,0.00,WeatherDisplay:10.37,2013-06-29 06:01:00,
2013-06-29 02:06:00,60.4,59.0,29.65,SSE,158,1.2,0.0,95,0.00,CLR,,0.00,WeatherDisplay:10.37,2013-06-29 06:06:00,
2013-06-29 02:11:00,60.8,59.4,29.65,South,180,3.5,3.5,95,0.00,CLR,,0.00,WeatherDisplay:10.37,2013-06-29 06:11:00,
2013-06-29 02:16:00,61.3,60.2,29.65,South,180,2.3,2.3,96,0.00,CLR,,0.00,WeatherDisplay:10.37,2013-06-29 06:16:00,
2013-06-29 02:21:00,61.5,60.4,29.65,SSE,158,3.5,3.5,96,0.00,CLR,,0.00,WeatherDisplay:10.37,2013-06-29 06:21:00,
2013-06-29 02:26:00,61.5,60.4,29.65,SSE,158,3.5,3.5,96,0.00,CLR,,0.00,WeatherDisplay:10.37,2013-06-29 06:26:00,
2013-06-29 02:31:00,61.3,59.9,29.65,SSE,158,3.5,3.5,95,0.00,CLR,,0.00,WeatherDisplay:10.37,2013-06-29 06:31:00,
2013-06-29 02:36:00,61.3,59.9,29.65,SSW,202,3.5,3.5,95,0.00,CLR,,0.00,WeatherDisplay:10.37,2013-06-29 06:36:00,
2013-06-29 02:41:00,61.3,59.9,29.65,SSW,202,2.3,0.0,95,0.00,CLR,,0.00,WeatherDisplay:10.37,2013-06-29 06:41:00,
2013-06-29 02:46:00,61.2,59.4,29.65,SSE,158,1.6,1.6,94,0.00,CLR,,0.00,WeatherDisplay:10.37,2013-06-29 06:46:00,
2013-06-29 02:52:00,61.0,59.2,29.65,South,180,2.3,0.0,94,0.00,CLR,,0.00,WeatherDisplay:10.37,2013-06-29 06:52:00,
2013-06-29 02:57:00,61.0,59.5,29.65,SSW,202,1.2,1.2,95,0.00,CLR,,0.00,WeatherDisplay:10.37,2013-06-29 06:57:00,
2013-06-29 03:02:00,61.0,59.5,29.65,SSW,202,3.5,3.5,95,0.00,CLR,,0.00,WeatherDisplay:10.37,2013-06-29 07:02:00,
2013-06-29 03:07:00,61.0,59.5,29.65,SSW,202,2.3,2.3,95,0.00,CLR,,0.00,WeatherDisplay:10.37,2013-06-29 07:07:00,
2013-06-29 03:12:00,61.0,59.5,29.65,SSE,158,2.3,2.3,95,0.00,CLR,,0.00,WeatherDisplay:10.37,2013-06-29 07:12:00,
2013-06-29 03:17:00,61.0,59.5,29.65,South,180,1.2,1.2,95,0.00,CLR,,0.00,WeatherDisplay:10.37,2013-06-29 07:17:00,
2013-06-29 03:22:00,61.0,59.5,29.65,South,180,3.5,3.5,95,0.00,CLR,,0.00,WeatherDisplay:10.37,2013-06-29 07:22:00,
2013-06-29 03:27:00,60.8,59.4,29.65,SSW,202,2.3,2.3,95,0.00,CLR,,0.00,WeatherDisplay:10.37,2013-06-29 07:27:00,
2013-06-29 03:32:00,61.0,59.5,29.65,SSW,202,2.4,2.4,95,0.00,CLR,,0.00,WeatherDisplay:10.37,2013-06-29 07:32:00,
2013-06-29 03:37:00,61.0,59.8,29.65,SSW,202,3.5,3.5,96,0.00,CLR,,0.00,WeatherDisplay:10.37,2013-06-29 07:37:00,
2013-06-29 03:42:00,61.2,60.0,29.65,WNW,292,3.5,3.5,96,0.00,CLR,,0.00,WeatherDisplay:10.37,2013-06-29 07:42:00,
2013-06-29 03:47:00,61.2,60.0,29.65,SSW,202,2.3,2.3,96,0.00,CLR,,0.00,WeatherDisplay:10.37,2013-06-29 07:47:00,
2013-06-29 03:52:00,61.3,59.9,29.65,SSW,202,2.4,2.4,95,0.00,CLR,,0.00,WeatherDisplay:10.37,2013-06-29 07:52:00,
2013-06-29 03:57:00,61.3,60.2,29.65,SSW,202,3.5,3.5,96,0.00,CLR,,0.00,WeatherDisplay:10.37,2013-06-29 07:57:00,
2013-06-29 04:02:00,61.3,60.2,29.65,SSW,202,3.6,3.6,96,0.00,CLR,,0.00,WeatherDisplay:10.37,2013-06-29 08:02:00,
2013-06-29 04:07:00,61.5,60.4,29.65,SSW,202,3.5,3.5,96,0.00,CLR,,0.00,WeatherDisplay:10.37,2013-06-29 08:07:00,
2013-06-29 04:12:00,61.5,60.4,29.65,WSW,248,3.5,3.5,96,0.00,CLR,,0.00,WeatherDisplay:10.37,2013-06-29 08:12:00,
2013-06-29 04:17:00,61.7,60.5,29.65,South,180,3.5,3.5,96,0.00,CLR,,0.00,WeatherDisplay:10.37,2013-06-29 08:17:00,
2013-06-29 04:22:00,61.7,60.5,29.65,SSW,202,3.1,3.1,96,0.00,CLR,,0.00,WeatherDisplay:10.37,2013-06-29 08:22:00,
2013-06-29 04:27:00,61.7,60.5,29.65,WSW,248,3.5,3.5,96,0.00,CLR,,0.00,WeatherDisplay:10.37,2013-06-29 08:27:00,
2013-06-29 04:32:00,61.7,60.3,29.65,SW,225,2.3,2.3,95,0.00,CLR,,0.00,WeatherDisplay:10.37,2013-06-29 08:32:00,
2013-06-29 04:37:00,61.5,60.1,29.65,South,180,2.3,2.3,95,0.00,CLR,,0.00,WeatherDisplay:10.37,2013-06-29 08:37:00,
2013-06-29 04:42:00,61.5,60.1,29.65,WSW,248,1.2,1.2,95,0.00,CLR,,0.00,WeatherDisplay:10.37,2013-06-29 08:42:00,
2013-06-29 04:47:00,61.3,59.9,29.65,WSW,248,2.2,2.2,95,0.00,CLR,,0.00,WeatherDisplay:10.37,2013-06-29 08:47:00,
2013-06-29 04:52:00,61.2,59.7,29.65,WSW,248,1.2,0.0,95,0.00,CLR,,0.00,WeatherDisplay:10.37,2013-06-29 08:52:00,
2013-06-29 04:57:00,60.8,59.4,29.65,SSW,202,1.2,0.0,95,0.00,CLR,,0.00,WeatherDisplay:10.37,2013-06-29 08:57:00,
2013-06-29 05:02:00,60.8,59.7,29.65,SSW,202,2.3,2.3,96,0.00,CLR,,0.00,WeatherDisplay:10.37,2013-06-29 09:02:00,
2013-06-29 05:07:00,60.8,59.4,29.65,SSE,158,2.6,0.0,95,0.00,CLR,,0.00,WeatherDisplay:10.37,2013-06-29 09:07:00,
2013-06-29 05:12:00,60.6,59.5,29.65,WSW,248,2.3,2.3,96,0.00,CLR,,0.00,WeatherDisplay:10.37,2013-06-29 09:12:00,
2013-06-29 05:17:00,60.6,59.5,29.65,SSW,202,0.0,0.0,96,0.00,CLR,,0.00,WeatherDisplay:10.37,2013-06-29 09:17:00,
2013-06-29 05:22:00,60.4,59.3,29.65,SSW,202,0.0,0.0,96,0.00,CLR,,0.00,WeatherDisplay:10.37,2013-06-29 09:22:00,
2013-06-29 05:27:00,60.3,59.1,29.65,WSW,248,0.0,0.0,96,0.00,CLR,,0.00,WeatherDisplay:10.37,2013-06-29 09:27:00,
2013-06-29 05:32:00,60.3,59.1,29.65,SSW,202,0.0,0.0,96,0.00,CLR,,0.00,WeatherDisplay:10.37,2013-06-29 09:32:00,
2013-06-29 05:37:00,60.1,58.9,29.65,SSE,158,0.0,0.0,96,0.00,CLR,,0.00,WeatherDisplay:10.37,2013-06-29 09:37:00,
2013-06-29 05:42:00,60.3,59.1,29.65,SSE,158,1.2,0.0,96,0.00,CLR,,0.00,WeatherDisplay:10.37,2013-06-29 09:42:00,
2013-06-29 05:47:00,60.3,59.1,29.65,SSW,202,1.6,1.6,96,0.00,CLR,,0.00,WeatherDisplay:10.37,2013-06-29 09:47:00,
2013-06-29 05:52:00,60.3,59.1,29.65,South,180,2.4,2.4,96,0.00,CLR,,0.00,WeatherDisplay:10.37,2013-06-29 09:52:00,
2013-06-29 05:57:00,60.4,59.6,29.65,SSW,202,2.3,2.3,97,0.00,CLR,,0.00,WeatherDisplay:10.37,2013-06-29 09:57:00,
2013-06-29 06:02:00,60.6,59.8,29.65,SSE,158,1.6,1.6,97,0.00,CLR,,0.00,WeatherDisplay:10.37,2013-06-29 10:02:00,
2013-06-29 06:07:00,60.6,59.8,29.65,SSW,202,0.0,0.0,97,0.00,CLR,,0.00,WeatherDisplay:10.37,2013-06-29 10:07:00,
2013-06-29 06:12:00,60.4,59.6,29.65,SSW,202,0.0,0.0,97,0.00,CLR,,0.00,WeatherDisplay:10.37,2013-06-29 10:12:00,
2013-06-29 06:17:00,60.4,59.6,29.65,SSW,202,1.2,1.2,97,0.00,CLR,,0.00,WeatherDisplay:10.37,2013-06-29 10:17:00,
2013-06-29 06:22:00,60.6,59.8,29.65,SSW,202,1.2,1.2,97,0.00,CLR,,0.00,WeatherDisplay:10.37,2013-06-29 10:22:00,
2013-06-29 06:27:00,60.6,59.8,29.65,SSW,202,1.2,0.0,97,0.00,CLR,,0.00,WeatherDisplay:10.37,2013-06-29 10:27:00,
2013-06-29 06:32:00,61.2,60.3,29.65,SSW,202,1.6,0.0,97,0.00,CLR,,0.00,WeatherDisplay:10.37,2013-06-29 10:32:00,
2013-06-29 06:37:00,61.7,60.8,29.65,South,180,2.3,2.3,97,0.00,CLR,,0.00,WeatherDisplay:10.37,2013-06-29 10:37:00,
2013-06-29 06:42:00,62.1,61.2,29.65,SSE,158,2.3,2.3,97,0.00,CLR,,0.00,WeatherDisplay:10.37,2013-06-29 10:42:00,
2013-06-29 06:47:00,62.6,61.4,29.65,SSW,202,3.5,3.5,96,0.00,CLR,,0.00,WeatherDisplay:10.37,2013-06-29 10:47:00,
2013-06-29 06:52:00,62.2,61.1,29.65,SSW,202,2.3,2.3,96,0.00,CLR,,0.00,WeatherDisplay:10.37,2013-06-29 10:52:00,
2013-06-29 06:57:00,62.1,60.9,29.65,South,180,3.8,3.8,96,0.00,CLR,,0.00,WeatherDisplay:10.37,2013-06-29 10:57:00,
2013-06-29 07:02:00,61.9,60.7,29.65,SSW,202,2.3,2.3,96,0.00,CLR,,0.00,WeatherDisplay:10.37,2013-06-29 11:02:00,
2013-06-29 07:07:00,62.2,61.1,29.65,SSW,202,3.5,3.5,96,0.00,CLR,,0.00,WeatherDisplay:10.37,2013-06-29 11:07:00,
2013-06-29 07:12:00,63.5,62.3,29.65,SSW,202,2.3,2.3,96,0.00,CLR,,0.00,WeatherDisplay:10.37,2013-06-29 11:12:00,
2013-06-29 07:17:00,63.5,62.0,29.68,South,180,3.5,3.5,95,0.00,CLR,,0.00,WeatherDisplay:10.37,2013-06-29 11:17:00,
2013-06-29 07:22:00,64.0,62.3,29.68,SSW,202,4.6,4.6,94,0.00,CLR,,0.00,WeatherDisplay:10.37,2013-06-29 11:22:00,
2013-06-29 07:27:00,64.0,62.0,29.68,SSW,202,5.8,5.8,93,0.00,CLR,,0.00,WeatherDisplay:10.37,2013-06-29 11:27:00,
2013-06-29 07:32:00,63.7,61.6,29.68,SSW,202,3.5,3.5,93,0.00,CLR,,0.00,WeatherDisplay:10.37,2013-06-29 11:32:00,
2013-06-29 07:37:00,64.2,62.2,29.68,WSW,248,3.5,3.5,93,0.00,CLR,,0.00,WeatherDisplay:10.37,2013-06-29 11:37:00,
2013-06-29 07:42:00,64.9,62.6,29.68,SSW,202,2.3,2.3,92,0.00,CLR,,0.00,WeatherDisplay:10.37,2013-06-29 11:42:00,
2013-06-29 07:47:00,65.1,62.7,29.68,South,180,2.3,2.3,92,0.00,CLR,,0.00,WeatherDisplay:10.37,2013-06-29 11:47:00,
2013-06-29 07:52:00,64.9,62.2,29.68,WSW,248,2.3,2.3,91,0.00,CLR,,0.00,WeatherDisplay:10.37,2013-06-29 11:52:00,
2013-06-29 07:57:00,66.4,63.7,29.68,WSW,248,2.3,2.3,91,0.00,CLR,,0.00,WeatherDisplay:10.37,2013-06-29 11:57:00,
2013-06-29 08:02:00,67.8,64.8,29.68,SSE,158,1.6,0.0,90,0.00,CLR,,0.00,WeatherDisplay:10.37,2013-06-29 12:02:00,
2013-06-29 08:07:00,68.0,63.7,29.68,SSW,202,2.4,2.4,86,0.00,CLR,,0.00,WeatherDisplay:10.37,2013-06-29 12:07:00,
2013-06-29 08:12:00,68.7,63.3,29.68,WNW,292,2.4,2.4,83,0.00,CLR,,0.00,WeatherDisplay:10.37,2013-06-29 12:12:00,
2013-06-29 08:17:00,69.6,63.9,29.68,SSW,202,2.3,2.3,82,0.00,CLR,,0.00,WeatherDisplay:10.37,2013-06-29 12:17:00,
2013-06-29 08:22:00,70.2,63.3,29.68,WSW,248,4.6,4.6,79,0.00,CLR,,0.00,WeatherDisplay:10.37,2013-06-29 12:22:00,
2013-06-29 08:27:00,69.6,62.5,29.68,SSW,202,4.6,4.6,78,0.00,CLR,,0.00,WeatherDisplay:10.37,2013-06-29 12:27:00,
2013-06-29 08:32:00,71.1,63.5,29.68,SSW,202,3.8,3.8,77,0.00,CLR,,0.00,WeatherDisplay:10.37,2013-06-29 12:32:00,
2013-06-29 08:37:00,70.5,62.6,29.68,South,180,5.8,5.8,76,0.00,CLR,,0.00,WeatherDisplay:10.37,2013-06-29 12:37:00,
2013-06-29 08:42:00,69.8,62.3,29.68,NNW,338,4.6,4.6,77,0.00,CLR,,0.00,WeatherDisplay:10.37,2013-06-29 12:42:00,
2013-06-29 08:47:00,69.6,62.5,29.68,SSE,158,2.3,2.4,78,0.00,CLR,,0.00,WeatherDisplay:10.37,2013-06-29 12:47:00,
2013-06-29 08:53:00,68.9,62.5,29.68,WNW,292,2.3,2.3,80,0.00,CLR,,0.00,WeatherDisplay:10.37,2013-06-29 12:53:00,
2013-06-29 08:58:00,69.3,62.8,29.68,WNW,292,3.3,3.3,80,0.00,CLR,,0.00,WeatherDisplay:10.37,2013-06-29 12:58:00,
2013-06-29 09:03:00,69.4,63.0,29.68,SSE,158,4.6,4.6,80,0.00,CLR,,0.00,WeatherDisplay:10.37,2013-06-29 13:03:00,
2013-06-29 09:08:00,69.4,63.0,29.68,WSW,248,2.3,0.0,80,0.00,CLR,,0.00,WeatherDisplay:10.37,2013-06-29 13:08:00,
2013-06-29 09:13:00,70.0,63.2,29.68,WNW,292,3.8,3.8,79,0.00,CLR,,0.00,WeatherDisplay:10.37,2013-06-29 13:13:00,
2013-06-29 09:18:00,70.7,63.5,29.68,West,270,4.9,4.9,78,0.00,CLR,,0.00,WeatherDisplay:10.37,2013-06-29 13:18:00,
2013-06-29 09:23:00,71.1,63.1,29.68,SSE,158,5.8,5.8,76,0.00,CLR,,0.00,WeatherDisplay:10.37,2013-06-29 13:23:00,
2013-06-29 09:28:00,70.7,63.1,29.68,WSW,248,4.6,4.6,77,0.00,CLR,,0.00,WeatherDisplay:10.37,2013-06-29 13:28:00,
2013-06-29 09:33:00,71.1,63.5,29.68,SSW,202,2.3,2.3,77,0.00,CLR,,0.00,WeatherDisplay:10.37,2013-06-29 13:33:00,
2013-06-29 09:38:00,71.1,63.1,29.68,WNW,292,4.3,4.3,76,0.00,CLR,,0.00,WeatherDisplay:10.37,2013-06-29 13:38:00,
2013-06-29 09:43:00,71.1,63.1,29.68,WNW,292,3.5,3.5,76,0.00,CLR,,0.00,WeatherDisplay:10.37,2013-06-29 13:43:00,
2013-06-29 09:48:00,71.2,63.3,29.68,WNW,292,4.6,4.6,76,0.00,CLR,,0.00,WeatherDisplay:10.37,2013-06-29 13:48:00,
2013-06-29 09:53:00,73.4,63.8,29.68,WSW,248,4.6,4.6,72,0.00,CLR,,0.00,WeatherDisplay:10.37,2013-06-29 13:53:00,
2013-06-29 09:58:00,74.7,64.2,29.68,ENE,68,3.5,3.5,70,0.00,CLR,,0.00,WeatherDisplay:10.37,2013-06-29 13:58:00,
2013-06-29 10:03:00,75.9,65.0,29.68,WSW,248,4.6,4.6,69,0.00,CLR,,0.00,WeatherDisplay:10.37,2013-06-29 14:03:00,
2013-06-29 10:08:00,76.5,64.3,29.68,SSW,202,3.5,3.5,66,0.00,CLR,,0.00,WeatherDisplay:10.37,2013-06-29 14:08:00,
2013-06-29 10:13:00,77.9,64.7,29.68,NW,315,3.5,3.5,64,0.00,CLR,,0.00,WeatherDisplay:10.37,2013-06-29 14:13:00,
2013-06-29 10:18:00,78.6,65.0,29.68,SSE,158,2.3,2.3,63,0.00,CLR,,0.00,WeatherDisplay:10.37,2013-06-29 14:18:00,
2013-06-29 10:23:00,77.4,63.3,29.68,WSW,248,3.8,3.8,62,0.00,CLR,,0.00,WeatherDisplay:10.37,2013-06-29 14:23:00,
2013-06-29 10:28:00,76.8,62.3,29.68,WNW,292,8.5,8.5,61,0.00,CLR,,0.00,WeatherDisplay:10.37,2013-06-29 14:28:00,
2013-06-29 10:33:00,77.5,63.5,29.68,NNE,22,6.9,6.9,62,0.00,CLR,,0.00,WeatherDisplay:10.37,2013-06-29 14:33:00,
2013-06-29 10:38:00,77.9,62.9,29.68,WNW,292,8.1,8.1,60,0.00,CLR,,0.00,WeatherDisplay:10.37,2013-06-29 14:38:00,
2013-06-29 10:43:00,79.9,64.8,29.68,WNW,292,5.8,5.8,60,0.00,CLR,,0.00,WeatherDisplay:10.37,2013-06-29 14:43:00,
2013-06-29 10:48:00,80.4,64.3,29.68,SSW,202,4.6,4.6,58,0.00,CLR,,0.00,WeatherDisplay:10.37,2013-06-29 14:48:00,
2013-06-29 10:53:00,80.4,64.8,29.68,WNW,292,5.8,5.8,59,0.00,CLR,,0.00,WeatherDisplay:10.37,2013-06-29 14:53:00,
2013-06-29 10:58:00,80.2,62.1,29.68,NW,315,6.9,6.9,54,0.00,CLR,,0.00,WeatherDisplay:10.37,2013-06-29 14:58:00,
2013-06-29 11:03:00,81.5,63.8,29.68,WNW,292,4.6,4.6,55,0.00,CLR,,0.00,WeatherDisplay:10.37,2013-06-29 15:03:00,
2013-06-29 11:08:00,80.6,62.4,29.68,WNW,292,8.1,8.1,54,0.00,CLR,,0.00,WeatherDisplay:10.37,2013-06-29 15:08:00,
2013-06-29 11:13:00,79.2,62.6,29.68,NW,315,4.6,4.6,57,0.00,CLR,,0.00,WeatherDisplay:10.37,2013-06-29 15:13:00,
2013-06-29 11:18:00,81.0,63.3,29.68,WNW,292,6.9,6.9,55,0.00,CLR,,0.00,WeatherDisplay:10.37,2013-06-29 15:18:00,
2013-06-29 11:23:00,77.7,61.8,29.68,WSW,248,4.0,4.0,58,0.00,CLR,,0.00,WeatherDisplay:10.37,2013-06-29 15:23:00,
2013-06-29 11:28:00,77.0,61.6,29.68,NNW,338,5.8,5.8,59,0.00,CLR,,0.00,WeatherDisplay:10.37,2013-06-29 15:28:00,
2013-06-29 11:33:00,80.8,64.6,29.68,West,270,4.6,4.6,58,0.00,CLR,,0.00,WeatherDisplay:10.37,2013-06-29 15:33:00,
2013-06-29 11:38:00,79.3,62.3,29.68,WNW,292,5.4,5.4,56,0.00,CLR,,0.00,WeatherDisplay:10.37,2013-06-29 15:38:00,
2013-06-29 11:43:00,77.7,60.8,29.68,SSE,158,5.8,5.8,56,0.00,CLR,,0.00,WeatherDisplay:10.37,2013-06-29 15:43:00,
2013-06-29 11:48:00,77.4,62.4,29.68,SSW,202,4.6,4.6,60,0.00,CLR,,0.00,WeatherDisplay:10.37,2013-06-29 15:48:00,
2013-06-29 11:53:00,77.9,61.9,29.68,West,270,6.0,6.0,58,0.00,CLR,,0.00,WeatherDisplay:10.37,2013-06-29 15:53:00,
2013-06-29 11:58:00,77.2,61.3,29.68,WSW,248,4.6,4.6,58,0.00,CLR,,0.00,WeatherDisplay:10.37,2013-06-29 15:58:00,
2013-06-29 12:03:00,76.6,61.2,29.68,WSW,248,4.6,4.6,59,0.00,CLR,,0.00,WeatherDisplay:10.37,2013-06-29 16:03:00,
2013-06-29 12:08:00,76.5,62.0,29.68,SSW,202,4.6,4.6,61,0.00,CLR,,0.00,WeatherDisplay:10.37,2013-06-29 16:08:00,
2013-06-29 12:13:00,77.0,62.5,29.68,SSE,158,2.6,2.6,61,0.00,CLR,,0.00,WeatherDisplay:10.37,2013-06-29 16:13:00,
2013-06-29 12:18:00,79.9,62.8,29.71,SSW,202,4.9,4.9,56,0.00,CLR,,0.00,WeatherDisplay:10.37,2013-06-29 16:18:00,
2013-06-29 12:23:00,78.6,62.6,29.71,WNW,292,5.8,5.8,58,0.00,CLR,,0.00,WeatherDisplay:10.37,2013-06-29 16:23:00,
2013-06-29 12:28:00,77.0,60.6,29.71,SSW,202,6.0,6.0,57,0.00,CLR,,0.00,WeatherDisplay:10.37,2013-06-29 16:28:00,
2013-06-29 12:33:00,76.1,60.2,29.68,SSW,202,5.8,5.8,58,0.00,CLR,,0.00,WeatherDisplay:10.37,2013-06-29 16:33:00,
2013-06-29 12:38:00,79.5,64.4,29.68,SSW,202,5.8,5.8,60,0.00,CLR,,0.00,WeatherDisplay:10.37,2013-06-29 16:38:00,
2013-06-29 12:43:00,81.1,62.4,29.68,WNW,292,5.8,5.8,53,0.00,CLR,,0.00,WeatherDisplay:10.37,2013-06-29 16:43:00,
2013-06-29 12:48:00,78.6,60.6,29.68,SSE,158,5.8,5.8,54,0.00,CLR,,0.00,WeatherDisplay:10.37,2013-06-29 16:48:00,
2013-06-29 12:53:00,78.6,61.1,29.68,SSW,202,4.6,4.6,55,0.00,CLR,,0.00,WeatherDisplay:10.37,2013-06-29 16:53:00,
2013-06-29 12:58:00,78.1,61.1,29.68,SSW,202,5.8,5.8,56,0.00,CLR,,0.00,WeatherDisplay:10.37,2013-06-29 16:58:00,
2013-06-29 13:03:00,77.5,60.6,29.68,NNW,338,4.6,4.6,56,0.00,CLR,,0.00,WeatherDisplay:10.37,2013-06-29 17:03:00,
2013-06-29 13:08:00,77.7,61.8,29.68,SSW,202,6.9,6.9,58,0.00,CLR,,0.00,WeatherDisplay:10.37,2013-06-29 17:08:00,
2013-06-29 13:13:00,77.7,62.2,29.68,WSW,248,5.8,5.8,59,0.00,CLR,,0.00,WeatherDisplay:10.37,2013-06-29 17:13:00,
2013-06-29 13:18:00,80.6,64.0,29.68,WNW,292,5.8,5.8,57,0.00,CLR,,0.00,WeatherDisplay:10.37,2013-06-29 17:18:00,
2013-06-29 13:23:00,81.0,63.3,29.68,NNE,22,5.8,5.8,55,0.00,CLR,,0.00,WeatherDisplay:10.37,2013-06-29 17:23:00,
2013-06-29 13:28:00,81.1,61.8,29.68,WSW,248,9.2,9.2,52,0.00,CLR,,0.00,WeatherDisplay:10.37,2013-06-29 17:28:00,
2013-06-29 13:33:00,84.6,64.4,29.68,South,180,3.5,3.5,51,0.00,CLR,,0.00,WeatherDisplay:10.37,2013-06-29 17:33:00,
2013-06-29 13:38:00,84.6,63.9,29.68,WNW,292,5.4,5.4,50,0.00,CLR,,0.00,WeatherDisplay:10.37,2013-06-29 17:38:00,
2013-06-29 13:43:00,81.9,60.2,29.68,SSW,202,8.1,8.1,48,0.00,CLR,,0.00,WeatherDisplay:10.37,2013-06-29 17:43:00,
2013-06-29 13:48:00,81.9,60.8,29.68,WSW,248,5.8,5.8,49,0.00,CLR,,0.00,WeatherDisplay:10.37,2013-06-29 17:48:00,
2013-06-29 13:53:00,83.1,61.4,29.68,SSW,202,6.9,6.9,48,0.00,CLR,,0.00,WeatherDisplay:10.37,2013-06-29 17:53:00,
2013-06-29 13:58:00,85.1,63.2,29.68,SSE,158,4.6,4.6,48,0.00,CLR,,0.00,WeatherDisplay:10.37,2013-06-29 17:58:00,
2013-06-29 14:03:00,83.8,62.1,29.68,SSE,158,7.4,7.4,48,0.00,CLR,,0.00,WeatherDisplay:10.37,2013-06-29 18:03:00,
2013-06-29 14:08:00,82.6,60.9,29.68,SSE,158,5.8,5.9,48,0.00,CLR,,0.00,WeatherDisplay:10.37,2013-06-29 18:08:00,
2013-06-29 14:13:00,84.6,60.2,29.68,WSW,248,5.9,6.2,44,0.00,CLR,,0.00,WeatherDisplay:10.37,2013-06-29 18:13:00,
2013-06-29 14:18:00,84.4,61.3,29.68,SSW,202,8.1,8.1,46,0.00,CLR,,0.00,WeatherDisplay:10.37,2013-06-29 18:18:00,
2013-06-29 14:23:00,82.0,60.4,29.68,WNW,292,10.4,10.4,48,0.00,CLR,,0.00,WeatherDisplay:10.37,2013-06-29 18:23:00,
2013-06-29 14:28:00,81.7,61.2,29.68,WSW,248,8.1,8.1,50,0.00,CLR,,0.00,WeatherDisplay:10.37,2013-06-29 18:28:00,
2013-06-29 14:33:00,81.0,61.7,29.68,West,270,8.1,8.1,52,0.00,CLR,,0.00,WeatherDisplay:10.37,2013-06-29 18:33:00,
2013-06-29 14:38:00,79.0,60.9,29.68,WNW,292,8.1,8.1,54,0.00,CLR,,0.00,WeatherDisplay:10.37,2013-06-29 18:38:00,
2013-06-29 14:43:00,77.5,62.6,29.68,SSW,202,4.6,4.6,60,0.00,CLR,,0.00,WeatherDisplay:10.37,2013-06-29 18:43:00,
2013-06-29 14:49:00,81.3,66.6,29.68,SSW,202,3.8,3.8,61,0.00,CLR,,0.00,WeatherDisplay:10.37,2013-06-29 18:49:00,
2013-06-29 14:54:00,81.0,63.8,29.68,South,180,8.1,8.1,56,0.00,CLR,,0.00,WeatherDisplay:10.37,2013-06-29 18:54:00,
2013-06-29 14:59:00,81.5,62.7,29.68,SSE,158,11.5,11.5,53,0.00,CLR,,0.00,WeatherDisplay:10.37,2013-06-29 18:59:00,
2013-06-29 15:04:00,81.3,62.0,29.65,SSE,158,8.1,8.1,52,0.00,CLR,,0.00,WeatherDisplay:10.37,2013-06-29 19:04:00,
2013-06-29 15:09:00,82.2,61.7,29.65,SSW,202,9.2,9.2,50,0.00,CLR,,0.00,WeatherDisplay:10.37,2013-06-29 19:09:00,
2013-06-29 15:14:00,82.8,61.6,29.65,SSW,202,7.6,7.6,49,0.00,CLR,,0.00,WeatherDisplay:10.37,2013-06-29 19:14:00,
2013-06-29 15:19:00,80.4,60.6,29.68,SSE,158,5.8,5.8,51,0.00,CLR,,0.00,WeatherDisplay:10.37,2013-06-29 19:19:00,
2013-06-29 15:24:00,78.6,60.1,29.68,SSE,158,8.1,8.1,53,0.00,CLR,,0.00,WeatherDisplay:10.37,2013-06-29 19:24:00,
2013-06-29 15:29:00,79.0,60.4,29.68,SSW,202,5.8,5.8,53,0.00,CLR,,0.00,WeatherDisplay:10.37,2013-06-29 19:29:00,
2013-06-29 15:34:00,80.6,60.2,29.68,WNW,292,8.7,8.7,50,0.00,CLR,,0.00,WeatherDisplay:10.37,2013-06-29 19:34:00,
2013-06-29 15:39:00,82.8,61.6,29.68,West,270,5.8,5.8,49,0.00,CLR,,0.00,WeatherDisplay:10.37,2013-06-29 19:39:00,
2013-06-29 15:44:00,85.1,62.0,29.68,WNW,292,6.9,6.9,46,0.00,CLR,,0.00,WeatherDisplay:10.37,2013-06-29 19:44:00,
2013-06-29 15:49:00,85.5,61.7,29.68,SSW,202,5.8,5.8,45,0.00,CLR,,0.00,WeatherDisplay:10.37,2013-06-29 19:49:00,
2013-06-29 15:54:00,84.4,60.7,29.68,SSW,202,3.5,3.5,45,0.00,CLR,,0.00,WeatherDisplay:10.37,2013-06-29 19:54:00,
2013-06-29 15:59:00,84.9,61.8,29.68,WNW,292,2.3,2.3,46,0.00,CLR,,0.00,WeatherDisplay:10.37,2013-06-29 19:59:00,
2013-06-29 16:04:00,82.0,59.2,29.68,SSE,158,3.5,3.5,46,0.00,CLR,,0.00,WeatherDisplay:10.37,2013-06-29 20:04:00,
2013-06-29 16:09:00,81.1,59.0,29.68,WSW,248,5.8,5.8,47,0.00,CLR,,0.00,WeatherDisplay:10.37,2013-06-29 20:09:00,
2013-06-29 16:14:00,81.5,59.9,29.68,ENE,68,2.0,2.0,48,0.00,CLR,,0.00,WeatherDisplay:10.37,2013-06-29 20:14:00,
2013-06-29 16:19:00,80.1,59.2,29.68,NNE,22,4.6,4.6,49,0.00,CLR,,0.00,WeatherDisplay:10.37,2013-06-29 20:19:00,
2013-06-29 16:24:00,79.7,60.0,29.68,NNE,22,5.9,5.9,51,0.00,CLR,,0.00,WeatherDisplay:10.37,2013-06-29 20:24:00,
2013-06-29 16:29:00,76.8,60.4,29.68,ENE,68,4.6,4.6,57,0.00,CLR,,0.00,WeatherDisplay:10.37,2013-06-29 20:29:00,
2013-06-29 16:34:00,75.2,61.3,29.68,ESE,112,5.8,5.8,62,0.00,CLR,,0.00,WeatherDisplay:10.37,2013-06-29 20:34:00,
2013-06-29 16:39:00,74.8,61.8,29.68,ESE,112,6.2,6.2,64,0.00,CLR,,0.00,WeatherDisplay:10.37,2013-06-29 20:39:00,
2013-06-29 16:44:00,73.2,62.0,29.68,South,180,5.8,0.0,68,0.00,CLR,,0.00,WeatherDisplay:10.37,2013-06-29 20:44:00,
2013-06-29 16:49:00,72.7,62.3,29.68,ESE,112,2.4,2.4,70,0.00,CLR,,0.00,WeatherDisplay:10.37,2013-06-29 20:49:00,
2013-06-29 16:54:00,72.0,63.2,29.68,ENE,68,3.5,4.0,74,0.00,CLR,,0.00,WeatherDisplay:10.37,2013-06-29 20:54:00,
2013-06-29 16:59:00,71.2,63.3,29.68,WNW,292,3.5,3.5,76,0.04,RA,,0.04,WeatherDisplay:10.37,2013-06-29 20:59:00,
2013-06-29 17:04:00,70.7,64.6,29.68,NNW,338,3.8,3.8,81,0.08,RA,,0.08,WeatherDisplay:10.37,2013-06-29 21:04:00,
2013-06-29 17:09:00,69.8,64.1,29.68,NNW,338,5.8,5.8,82,0.08,RA,,0.08,WeatherDisplay:10.37,2013-06-29 21:09:00,
2013-06-29 17:14:00,68.9,63.2,29.68,NNW,338,5.8,5.8,82,0.08,,,0.08,WeatherDisplay:10.37,2013-06-29 21:14:00,
2013-06-29 17:19:00,67.5,62.5,29.68,NNW,338,8.1,8.1,84,0.08,CLR,,0.08,WeatherDisplay:10.37,2013-06-29 21:19:00,
2013-06-29 17:24:00,66.7,62.1,29.68,WNW,292,10.4,10.4,85,0.08,CLR,,0.08,WeatherDisplay:10.37,2013-06-29 21:24:00,
2013-06-29 17:29:00,66.7,61.7,29.68,SSE,158,4.6,4.6,84,0.08,CLR,,0.08,WeatherDisplay:10.37,2013-06-29 21:29:00,
2013-06-29 17:34:00,66.7,62.7,29.68,NNW,338,1.2,0.0,87,0.08,CLR,,0.08,WeatherDisplay:10.37,2013-06-29 21:34:00,
2013-06-29 17:39:00,66.9,63.2,29.68,West,270,4.6,4.6,88,0.08,CLR,,0.08,WeatherDisplay:10.37,2013-06-29 21:39:00,
2013-06-29 17:44:00,67.1,62.4,29.68,ENE,68,3.5,3.5,85,0.08,CLR,,0.08,WeatherDisplay:10.37,2013-06-29 21:44:00,
2013-06-29 17:49:00,67.5,62.8,29.68,ENE,68,5.9,5.9,85,0.08,CLR,,0.08,WeatherDisplay:10.37,2013-06-29 21:49:00,
2013-06-29 17:54:00,67.3,62.3,29.68,ENE,68,3.5,3.5,84,0.08,CLR,,0.08,WeatherDisplay:10.37,2013-06-29 21:54:00,
2013-06-29 17:59:00,67.5,62.5,29.68,ENE,68,3.5,3.5,84,0.04,CLR,,0.08,WeatherDisplay:10.37,2013-06-29 21:59:00,
2013-06-29 18:04:00,67.5,62.8,29.68,NNW,338,2.3,2.3,85,0.00,CLR,,0.08,WeatherDisplay:10.37,2013-06-29 22:04:00,
2013-06-29 18:09:00,67.3,62.9,29.68,NNW,338,4.6,4.6,86,0.00,CLR,,0.08,WeatherDisplay:10.37,2013-06-29 22:09:00,
2013-06-29 18:14:00,66.9,62.6,29.68,ENE,68,2.3,2.3,86,0.00,CLR,,0.08,WeatherDisplay:10.37,2013-06-29 22:14:00,
2013-06-29 18:19:00,66.6,62.2,29.68,ESE,112,2.4,2.4,86,0.00,CLR,,0.08,WeatherDisplay:10.37,2013-06-29 22:19:00,
2013-06-29 18:24:00,66.0,62.0,29.68,ESE,112,1.6,0.0,87,0.00,CLR,,0.08,WeatherDisplay:10.37,2013-06-29 22:24:00,
2013-06-29 18:29:00,65.8,62.5,29.68,ENE,68,2.3,2.3,89,0.00,CLR,,0.08,WeatherDisplay:10.37,2013-06-29 22:29:00,
2013-06-29 18:34:00,65.7,63.0,29.68,ENE,68,3.5,3.5,91,0.00,CLR,,0.08,WeatherDisplay:10.37,2013-06-29 22:34:00,
2013-06-29 18:39:00,65.8,63.5,29.68,South,180,2.4,2.4,92,0.00,CLR,,0.08,WeatherDisplay:10.37,2013-06-29 22:39:00,
2013-06-29 18:44:00,65.7,63.6,29.71,SSE,158,3.5,3.5,93,0.00,CLR,,0.08,WeatherDisplay:10.37,2013-06-29 22:44:00,
2013-06-29 18:49:00,65.8,63.5,29.71,North,0,3.8,3.8,92,0.00,CLR,,0.08,WeatherDisplay:10.37,2013-06-29 22:49:00,
2013-06-29 18:54:00,65.8,63.5,29.71,NNW,338,3.5,3.5,92,0.00,CLR,,0.08,WeatherDisplay:10.37,2013-06-29 22:54:00,
2013-06-29 18:59:00,65.5,63.4,29.71,NNW,338,8.1,8.1,93,0.00,CLR,,0.08,WeatherDisplay:10.37,2013-06-29 22:59:00,
2013-06-29 19:04:00,64.9,62.2,29.71,NNE,22,5.8,5.8,91,0.00,CLR,,0.08,WeatherDisplay:10.37,2013-06-29 23:04:00,
2013-06-29 19:09:00,64.6,61.9,29.71,WNW,292,3.5,3.5,91,0.00,CLR,,0.08,WeatherDisplay:10.37,2013-06-29 23:09:00,
2013-06-29 19:14:00,64.4,61.7,29.74,NNW,338,3.1,3.1,91,0.00,CLR,,0.08,WeatherDisplay:10.37,2013-06-29 23:14:00,
2013-06-29 19:19:00,64.2,61.2,29.74,NNE,22,6.4,6.4,90,0.00,CLR,,0.08,WeatherDisplay:10.37,2013-06-29 23:19:00,
2013-06-29 19:24:00,64.0,61.4,29.74,WNW,292,4.6,4.6,91,0.00,CLR,,0.08,WeatherDisplay:10.37,2013-06-29 23:24:00,
2013-06-29 19:29:00,64.0,61.7,29.74,NNW,338,5.8,5.8,92,0.00,CLR,,0.08,WeatherDisplay:10.37,2013-06-29 23:29:00,
2013-06-29 19:34:00,64.0,61.7,29.74,ENE,68,4.6,4.6,92,0.00,CLR,,0.08,WeatherDisplay:10.37,2013-06-29 23:34:00,
2013-06-29 19:39:00,64.0,61.7,29.74,NNW,338,4.6,4.6,92,0.00,CLR,,0.08,WeatherDisplay:10.37,2013-06-29 23:39:00,
2013-06-29 19:44:00,64.0,61.7,29.74,NNW,338,1.6,0.0,92,0.00,CLR,,0.08,WeatherDisplay:10.37,2013-06-29 23:44:00,
2013-06-29 19:49:00,64.2,61.8,29.74,NNE,22,1.4,0.0,92,0.00,CLR,,0.08,WeatherDisplay:10.37,2013-06-29 23:49:00,
2013-06-29 19:55:00,64.0,61.4,29.74,NNW,338,2.3,2.3,91,0.00,CLR,,0.08,WeatherDisplay:10.37,2013-06-29 23:55:00,
2013-06-29 20:00:00,64.0,61.4,29.71,NNW,338,1.2,0.0,91,0.00,CLR,,0.08,WeatherDisplay:10.37,2013-06-30 00:00:00,
2013-06-29 20:05:00,64.0,61.4,29.71,NNW,338,1.6,0.0,91,0.00,CLR,,0.08,WeatherDisplay:10.37,2013-06-30 00:05:00,
2013-06-29 20:10:00,64.0,61.4,29.71,WNW,292,3.5,3.5,91,0.00,CLR,,0.08,WeatherDisplay:10.37,2013-06-30 00:10:00,
2013-06-29 20:15:00,63.9,61.2,29.71,ENE,68,0.0,0.0,91,0.00,CLR,,0.08,WeatherDisplay:10.37,2013-06-30 00:15:00,
2013-06-29 20:20:00,63.9,61.2,29.71,SSW,202,3.5,3.5,91,0.00,CLR,,0.08,WeatherDisplay:10.37,2013-06-30 00:20:00,
2013-06-29 20:25:00,63.7,61.3,29.71,ESE,112,2.3,2.3,92,0.00,CLR,,0.08,WeatherDisplay:10.37,2013-06-30 00:25:00,
2013-06-29 20:30:00,63.7,61.0,29.74,SSE,158,2.0,2.0,91,0.00,CLR,,0.08,WeatherDisplay:10.37,2013-06-30 00:30:00,
2013-06-29 20:35:00,63.5,60.8,29.74,NNE,22,1.2,0.0,91,0.00,CLR,,0.08,WeatherDisplay:10.37,2013-06-30 00:35:00,
2013-06-29 20:40:00,63.5,60.8,29.74,NNW,338,3.3,0.0,91,0.00,CLR,,0.08,WeatherDisplay:10.37,2013-06-30 00:40:00,
2013-06-29 20:45:00,63.7,61.6,29.74,WNW,292,3.5,3.5,93,0.00,CLR,,0.08,WeatherDisplay:10.37,2013-06-30 00:45:00,
2013-06-29 20:50:00,63.5,61.4,29.74,NNW,338,3.5,3.5,93,0.00,CLR,,0.08,WeatherDisplay:10.37,2013-06-30 00:50:00,
2013-06-29 20:55:00,63.3,61.3,29.74,NNW,338,2.9,0.0,93,0.00,CLR,,0.08,WeatherDisplay:10.37,2013-06-30 00:55:00,
2013-06-29 21:00:00,63.1,61.1,29.71,NE,45,0.0,0.0,93,0.00,CLR,,0.08,WeatherDisplay:10.37,2013-06-30 01:00:00,
2013-06-29 21:05:00,63.0,60.9,29.71,ENE,68,2.3,2.3,93,0.00,CLR,,0.08,WeatherDisplay:10.37,2013-06-30 01:05:00,
2013-06-29 21:10:00,62.8,60.7,29.71,ENE,68,3.5,3.5,93,0.00,CLR,,0.08,WeatherDisplay:10.37,2013-06-30 01:10:00,
2013-06-29 21:15:00,62.6,60.8,29.71,SSE,158,2.3,2.3,94,0.00,CLR,,0.08,WeatherDisplay:10.37,2013-06-30 01:15:00,
2013-06-29 21:20:00,62.6,60.8,29.71,ENE,68,2.9,2.9,94,0.00,CLR,,0.08,WeatherDisplay:10.37,2013-06-30 01:20:00,
2013-06-29 21:25:00,62.6,60.5,29.71,ENE,68,3.5,3.5,93,0.00,CLR,,0.08,WeatherDisplay:10.37,2013-06-30 01:25:00,
2013-06-29 21:30:00,62.4,60.7,29.71,ENE,68,2.3,2.3,94,0.00,CLR,,0.08,WeatherDisplay:10.37,2013-06-30 01:30:00,
2013-06-29 21:35:00,62.2,60.5,29.71,ENE,68,2.3,2.3,94,0.00,CLR,,0.08,WeatherDisplay:10.37,2013-06-30 01:35:00,
2013-06-29 21:40:00,62.2,60.5,29.71,ENE,68,3.5,3.5,94,0.00,CLR,,0.08,WeatherDisplay:10.37,2013-06-30 01:40:00,
2013-06-29 21:45:00,62.2,60.5,29.71,ENE,68,3.5,3.5,94,0.00,CLR,,0.08,WeatherDisplay:10.37,2013-06-30 01:45:00,
2013-06-29 21:50:00,62.4,60.7,29.71,ENE,68,2.9,2.9,94,0.00,CLR,,0.08,WeatherDisplay:10.37,2013-06-30 01:50:00,
2013-06-29 21:55:00,62.6,60.5,29.71,ESE,112,4.6,4.6,93,0.00,CLR,,0.08,WeatherDisplay:10.37,2013-06-30 01:55:00,
2013-06-29 22:00:00,62.6,60.5,29.71,NNE,22,3.5,3.5,93,0.00,CLR,,0.08,WeatherDisplay:10.37,2013-06-30 02:00:00,
2013-06-29 22:05:00,62.6,60.5,29.71,NNW,338,3.5,3.5,93,0.00,CLR,,0.08,WeatherDisplay:10.37,2013-06-30 02:05:00,
2013-06-29 22:10:00,62.6,60.5,29.71,NNW,338,4.6,4.6,93,0.00,CLR,,0.08,WeatherDisplay:10.37,2013-06-30 02:10:00,
2013-06-29 22:15:00,62.2,60.2,29.74,NNW,338,1.2,1.4,93,0.00,CLR,,0.08,WeatherDisplay:10.37,2013-06-30 02:15:00,
2013-06-29 22:20:00,62.1,60.0,29.74,NNE,22,0.9,0.0,93,0.00,CLR,,0.08,WeatherDisplay:10.37,2013-06-30 02:20:00,
2013-06-29 22:25:00,62.1,60.0,29.74,NNW,338,1.2,1.2,93,0.00,CLR,,0.08,WeatherDisplay:10.37,2013-06-30 02:25:00,
2013-06-29 22:30:00,61.9,60.1,29.74,NNW,338,1.2,0.0,94,0.00,CLR,,0.08,WeatherDisplay:10.37,2013-06-30 02:30:00,
2013-06-29 22:35:00,61.9,60.1,29.74,NNE,22,0.0,0.0,94,0.00,CLR,,0.08,WeatherDisplay:10.37,2013-06-30 02:35:00,
2013-06-29 22:40:00,61.9,60.1,29.74,ENE,68,2.3,2.3,94,0.00,CLR,,0.08,WeatherDisplay:10.37,2013-06-30 02:40:00,
2013-06-29 22:45:00,61.9,60.4,29.74,NNW,338,2.3,2.3,95,0.00,CLR,,0.08,WeatherDisplay:10.37,2013-06-30 02:45:00,
2013-06-29 22:50:00,61.7,60.3,29.74,NNE,22,1.2,0.0,95,0.00,CLR,,0.08,WeatherDisplay:10.37,2013-06-30 02:50:00,
2013-06-29 22:55:00,61.5,60.1,29.74,ENE,68,1.2,0.0,95,0.00,CLR,,0.08,WeatherDisplay:10.37,2013-06-30 02:55:00,
2013-06-29 23:00:00,61.5,60.1,29.74,NNE,22,1.2,1.2,95,0.00,CLR,,0.08,WeatherDisplay:10.37,2013-06-30 03:00:00,
2013-06-29 23:05:00,61.7,60.5,29.74,NNE,22,2.6,2.6,96,0.00,CLR,,0.08,WeatherDisplay:10.37,2013-06-30 03:05:00,
2013-06-29 23:10:00,61.9,60.7,29.74,ENE,68,3.5,3.5,96,0.00,CLR,,0.08,WeatherDisplay:10.37,2013-06-30 03:10:00,
2013-06-29 23:15:00,61.7,60.5,29.74,ENE,68,2.3,2.3,96,0.00,CLR,,0.08,WeatherDisplay:10.37,2013-06-30 03:15:00,
2013-06-29 23:20:00,61.9,60.7,29.74,ENE,68,2.4,2.4,96,0.00,CLR,,0.08,WeatherDisplay:10.37,2013-06-30 03:20:00,
2013-06-29 23:25:00,61.9,60.7,29.74,ENE,68,2.3,2.3,96,0.00,CLR,,0.08,WeatherDisplay:10.37,2013-06-30 03:25:00,
2013-06-29 23:30:00,61.7,60.5,29.74,ENE,68,4.6,4.6,96,0.00,CLR,,0.08,WeatherDisplay:10.37,2013-06-30 03:30:00,
2013-06-29 23:35:00,61.9,60.7,29.74,ESE,112,2.3,2.3,96,0.00,CLR,,0.08,WeatherDisplay:10.37,2013-06-30 03:35:00,
2013-06-29 23:40:00,61.9,61.0,29.74,ENE,68,4.6,4.6,97,0.00,CLR,,0.08,WeatherDisplay:10.37,2013-06-30 03:40:00,
2013-06-29 23:45:00,61.7,60.5,29.74,ENE,68,2.3,2.3,96,0.00,CLR,,0.08,WeatherDisplay:10.37,2013-06-30 03:45:00,
2013-06-29 23:50:00,61.7,60.5,29.74,East,90,2.3,2.3,96,0.00,CLR,,0.08,WeatherDisplay:10.37,2013-06-30 03:50:00,
2013-06-29 23:55:00,61.7,60.5,29.74,ENE,68,3.5,3.5,96,0.00,CLR,,0.08,WeatherDisplay:10.37,2013-06-30 03:55:00,